Time;durP1;ratioP1;P1;durP2;ratioP2;P2;SDS_P1;SDS_P2;PMS_P1;PMS_P2;Temp;Humidity;BMP_temperature;BMP_pressure;BME280_temperature;BME280_humidity;BME280_pressure;Samples;Min_cycle;Max_cycle;Signal;HPM_P1;HPM_P2
2023/04/06 00:01:29;;;;;;;6.45;1.25;;;;;;;2.55;64.03;101034.47;5032754;28;20033;-79
2023/04/06 00:03:55;;;;;;;5.90;1.38;;;;;;;2.57;65.16;101032.66;5032267;28;20056;-79
2023/04/06 00:06:20;;;;;;;3.95;1.10;;;;;;;2.53;65.32;101033.72;5032895;28;20052;-79
2023/04/06 00:08:45;;;;;;;3.47;1.38;;;;;;;2.54;65.32;101032.00;5028285;28;20033;-79
2023/04/06 00:11:11;;;;;;;5.57;1.23;;;;;;;2.51;65.57;101020.13;5034437;28;20470;-79
2023/04/06 00:13:37;;;;;;;4.78;1.35;;;;;;;2.45;66.17;101023.00;5035461;28;20116;-79
2023/04/06 00:16:02;;;;;;;4.32;1.38;;;;;;;2.39;65.87;101025.06;5029255;28;20040;-79
2023/04/06 00:18:28;;;;;;;6.75;1.75;;;;;;;2.42;64.80;101023.16;5029461;28;20037;-78
2023/04/06 00:20:53;;;;;;;7.25;2.05;;;;;;;2.62;62.30;101019.56;5034591;28;20033;-79
2023/04/06 00:23:19;;;;;;;5.45;1.73;;;;;;;2.67;63.23;101015.00;5031303;28;20487;-78
2023/04/06 00:25:45;;;;;;;11.43;1.85;;;;;;;2.65;63.28;101014.25;5031512;28;20493;-79
2023/04/06 00:28:10;;;;;;;14.27;2.83;;;;;;;2.60;63.67;101016.25;5031941;28;20073;-79
2023/04/06 00:30:35;;;;;;;4.60;1.85;;;;;;;2.54;63.67;101012.25;5030453;28;20034;-79
2023/04/06 00:33:01;;;;;;;4.07;1.75;;;;;;;2.50;63.97;101020.19;5032150;28;20107;-79
2023/04/06 00:35:26;;;;;;;3.50;1.67;;;;;;;2.48;64.59;101016.88;5031000;28;20034;-79
2023/04/06 00:37:52;;;;;;;9.48;1.52;;;;;;;2.40;65.11;101009.53;5035128;28;20028;-79
2023/04/06 00:40:17;;;;;;;4.47;1.23;;;;;;;2.30;65.85;101014.34;5030337;28;20041;-79
2023/04/06 00:42:43;;;;;;;3.95;1.67;;;;;;;2.18;65.90;101020.13;5030241;28;20029;-78
2023/04/06 00:45:09;;;;;;;4.03;1.20;;;;;;;2.14;65.49;101010.06;5030674;28;20132;-79
2023/04/06 00:47:35;;;;;;;3.75;1.60;;;;;;;2.16;65.19;101016.78;5031456;28;20096;-79
2023/04/06 00:50:00;;;;;;;4.57;1.55;;;;;;;2.18;65.92;101016.72;5043158;28;20060;-78
2023/04/06 00:52:25;;;;;;;3.72;1.75;;;;;;;2.22;64.96;101020.78;5028588;28;20060;-78
2023/04/06 00:54:51;;;;;;;3.40;1.20;;;;;;;2.24;64.75;101019.81;5044342;28;20025;-79
2023/04/06 00:57:17;;;;;;;4.38;1.30;;;;;;;2.18;65.12;101014.16;5039818;28;20052;-79
2023/04/06 00:59:43;;;;;;;4.95;1.45;;;;;;;2.12;65.37;101006.75;5030482;28;20147;-79
2023/04/06 01:02:09;;;;;;;4.88;1.25;;;;;;;2.10;65.66;101016.25;5033927;28;20040;-79
2023/04/06 01:04:35;;;;;;;4.72;1.65;;;;;;;2.04;66.60;101012.25;5038161;28;20046;-79
2023/04/06 01:07:00;;;;;;;5.90;1.42;;;;;;;1.99;67.55;101001.38;5038991;28;20029;-79
2023/04/06 01:09:30;;;;;;;5.75;1.15;;;;;;;1.98;67.80;101002.28;5033162;28;20502;-79
2023/04/06 01:11:56;;;;;;;4.97;1.80;;;;;;;1.89;67.52;101007.91;5040866;28;20021;-81
2023/04/06 01:14:23;;;;;;;5.35;1.63;;;;;;;1.79;68.12;101006.69;5041120;28;20508;-80
2023/04/06 01:16:48;;;;;;;3.42;1.70;;;;;;;1.75;69.17;101007.75;5042151;28;20383;-80
2023/04/06 01:19:14;;;;;;;8.02;2.40;;;;;;;1.64;69.66;100998.00;5034355;28;20037;-80
2023/04/06 01:21:41;;;;;;;8.40;2.30;;;;;;;1.56;69.61;101006.06;5040643;28;20029;-80
2023/04/06 01:24:07;;;;;;;5.72;2.72;;;;;;;1.52;70.40;101003.72;5035598;28;20509;-80
2023/04/06 01:26:33;;;;;;;5.00;2.00;;;;;;;1.41;70.83;101009.38;5033145;28;20095;-80
2023/04/06 01:28:59;;;;;;;5.10;2.28;;;;;;;1.29;71.05;101002.25;5040322;28;20112;-80
2023/04/06 01:31:26;;;;;;;5.65;2.08;;;;;;;1.29;70.95;101002.25;5035679;28;20105;-80
2023/04/06 01:33:52;;;;;;;5.47;2.05;;;;;;;1.31;70.84;101003.84;5035612;28;20061;-80
2023/04/06 01:36:18;;;;;;;7.10;1.80;;;;;;;1.30;70.97;101001.34;5035334;28;20070;-80
2023/04/06 01:38:44;;;;;;;5.93;2.30;;;;;;;1.36;70.64;101003.63;5036490;28;20037;-80
2023/04/06 01:41:10;;;;;;;5.43;1.95;;;;;;;1.35;70.71;101001.97;5036022;28;20569;-79
2023/04/06 01:43:36;;;;;;;5.88;1.92;;;;;;;1.30;71.20;101006.50;5034142;28;20029;-80
2023/04/06 01:46:01;;;;;;;5.22;2.30;;;;;;;1.30;71.95;101001.34;5035348;28;20037;-79
2023/04/06 01:48:27;;;;;;;5.45;2.33;;;;;;;1.27;71.64;101006.63;5037436;28;20033;-79
2023/04/06 01:50:53;;;;;;;6.22;1.95;;;;;;;1.23;71.68;100999.97;5037827;28;20021;-80
2023/04/06 01:53:19;;;;;;;6.43;2.13;;;;;;;1.20;72.60;101000.94;5030086;28;20033;-80
2023/04/06 01:55:45;;;;;;;6.25;1.98;;;;;;;1.18;72.17;100997.63;5035858;28;20029;-80
2023/04/06 01:58:10;;;;;;;6.45;2.35;;;;;;;1.19;72.44;101001.84;5033874;28;20033;-80
2023/04/06 02:00:36;;;;;;;5.97;2.28;;;;;;;1.17;73.34;100995.13;5035359;28;20052;-79
2023/04/06 02:03:01;;;;;;;6.72;2.15;;;;;;;1.14;74.08;100997.84;5033454;28;20044;-80
2023/04/06 02:05:30;;;;;;;8.00;2.45;;;;;;;1.20;73.68;100992.41;5034019;28;20730;-80
2023/04/06 02:07:56;;;;;;;5.55;2.45;;;;;;;1.20;74.22;100995.00;5035586;28;20041;-80
2023/04/06 02:10:22;;;;;;;8.70;2.83;;;;;;;1.17;74.03;100990.81;5033313;28;20037;-79
2023/04/06 02:12:47;;;;;;;9.20;2.63;;;;;;;1.15;73.38;100995.19;5028473;28;20059;-78
2023/04/06 02:15:13;;;;;;;5.80;2.45;;;;;;;1.11;73.52;100988.53;5037968;28;20034;-78
2023/04/06 02:17:39;;;;;;;5.72;2.28;;;;;;;1.12;74.38;100990.22;5036667;28;20401;-80
2023/04/06 02:20:06;;;;;;;4.15;2.10;;;;;;;1.02;74.67;100993.25;5036372;28;20123;-80
2023/04/06 02:22:31;;;;;;;5.05;2.60;;;;;;;1.02;75.13;100988.97;5037081;28;20059;-79
2023/04/06 02:24:57;;;;;;;5.95;2.28;;;;;;;1.04;74.50;100991.47;5035723;28;20053;-80
2023/04/06 02:27:22;;;;;;;4.38;2.20;;;;;;;1.03;74.80;100987.22;5032923;28;20041;-80
2023/04/06 02:29:48;;;;;;;5.05;2.03;;;;;;;0.97;75.91;100994.31;5030768;28;20049;-80
2023/04/06 02:32:13;;;;;;;6.75;2.33;;;;;;;0.91;76.07;100992.06;5036864;28;20040;-80
2023/04/06 02:34:39;;;;;;;6.43;2.15;;;;;;;0.86;76.47;100994.00;5039489;28;20056;-80
2023/04/06 02:37:04;;;;;;;3.60;2.03;;;;;;;0.84;76.66;100989.84;5039787;28;20032;-80
2023/04/06 02:39:30;;;;;;;5.78;2.20;;;;;;;0.82;77.08;100984.78;5033118;28;20105;-79
2023/04/06 02:41:56;;;;;;;4.13;1.35;;;;;;;0.84;77.05;100980.41;5037731;28;20025;-79
2023/04/06 02:44:22;;;;;;;7.72;2.15;;;;;;;0.85;76.89;100978.66;5035723;28;20041;-79
2023/04/06 02:46:48;;;;;;;5.05;1.92;;;;;;;0.86;76.80;100977.78;5034794;28;20108;-79
2023/04/06 02:49:13;;;;;;;3.78;1.55;;;;;;;0.86;76.89;100981.16;5030802;28;20079;-79
2023/04/06 02:51:38;;;;;;;4.72;1.55;;;;;;;0.77;77.36;100981.56;5035634;28;20444;-79
2023/04/06 02:54:04;;;;;;;3.97;1.73;;;;;;;0.72;77.67;100980.94;5034807;28;20402;-79
2023/04/06 02:56:30;;;;;;;4.10;1.35;;;;;;;0.77;76.24;100984.16;5037565;28;20471;-79
2023/04/06 02:58:55;;;;;;;2.70;1.55;;;;;;;0.88;76.62;100981.94;5026533;28;20029;-79
2023/04/06 03:01:21;;;;;;;7.28;1.25;;;;;;;0.84;76.89;100982.13;5031845;28;20520;-79
2023/04/06 03:03:46;;;;;;;4.32;1.92;;;;;;;0.77;76.02;100976.44;5040927;28;20049;-80
2023/04/06 03:06:11;;;;;;;3.92;1.33;;;;;;;0.83;76.00;100978.75;5033275;28;20091;-80
2023/04/06 03:08:37;;;;;;;5.63;2.05;;;;;;;0.81;75.75;100979.72;5039197;28;20453;-80
2023/04/06 03:11:02;;;;;;;3.38;1.60;;;;;;;0.73;75.39;100982.63;5036953;28;20115;-81
2023/04/06 03:13:28;;;;;;;4.50;2.05;;;;;;;0.68;76.85;100984.56;5034606;28;20441;-80
2023/04/06 03:15:53;;;;;;;5.13;2.17;;;;;;;0.63;77.52;100983.94;5033411;28;20462;-79
2023/04/06 03:18:25;;;;;;;5.57;1.35;;;;;;;0.59;77.53;100982.41;5030959;28;20022;-80
2023/04/06 03:20:53;;;;;;;4.22;1.55;;;;;;;0.52;78.29;100986.97;5034093;28;20040;-80
2023/04/06 03:23:20;;;;;;;5.70;2.17;;;;;;;0.47;79.17;100978.66;5033623;28;20041;-80
2023/04/06 03:25:46;;;;;;;3.22;1.40;;;;;;;0.44;79.36;100988.22;5032462;28;20099;-80
2023/04/06 03:28:11;;;;;;;11.77;1.85;;;;;;;0.49;78.60;100988.81;5033634;28;20372;-79
2023/04/06 03:30:37;;;;;;;6.45;2.00;;;;;;;0.50;77.51;100985.38;5033284;28;20026;-80
2023/04/06 03:33:02;;;;;;;2.83;1.60;;;;;;;0.45;78.28;100985.59;5036508;28;20048;-80
2023/04/06 03:35:28;;;;;;;4.03;1.65;;;;;;;0.42;79.24;100993.41;5039061;28;20395;-80
2023/04/06 03:37:53;;;;;;;4.68;1.33;;;;;;;0.39;79.54;100990.16;5032479;28;20028;-80
2023/04/06 03:40:18;;;;;;;4.88;1.83;;;;;;;0.35;80.56;100996.31;5033358;28;20056;-79
2023/04/06 03:42:44;;;;;;;4.00;1.20;;;;;;;0.29;80.80;101003.38;5038491;28;20550;-80
2023/04/06 03:45:10;;;;;;;4.97;1.75;;;;;;;0.29;80.57;100998.25;5032354;28;20108;-80
2023/04/06 03:47:35;;;;;;;5.28;1.40;;;;;;;0.29;81.22;100998.25;5030676;28;20037;-80
2023/04/06 03:50:01;;;;;;;4.65;1.10;;;;;;;0.29;81.27;101002.53;5038525;28;20025;-80
2023/04/06 03:52:26;;;;;;;6.63;1.33;;;;;;;0.30;81.60;100997.34;5031981;28;20117;-79
2023/04/06 03:54:52;;;;;;;4.68;1.50;;;;;;;0.29;81.64;101002.53;5032223;28;20384;-80
2023/04/06 03:57:17;;;;;;;8.10;1.33;;;;;;;0.38;81.08;100997.00;5031242;28;20035;-80
2023/04/06 03:59:43;;;;;;;4.95;1.52;;;;;;;0.52;79.84;100994.66;5030680;28;20125;-80
2023/04/06 04:02:08;;;;;;;5.88;1.92;;;;;;;0.56;79.53;101003.03;5033650;28;20037;-80
2023/04/06 04:04:34;;;;;;;6.65;1.60;;;;;;;0.42;80.45;101008.81;5035943;28;20495;-80
2023/04/06 04:06:59;;;;;;;6.38;1.45;;;;;;;0.35;80.97;101007.41;5037143;28;20029;-80
2023/04/06 04:09:25;;;;;;;5.40;1.77;;;;;;;0.27;81.05;101005.16;5036140;28;20509;-80
2023/04/06 04:11:50;;;;;;;3.97;1.40;;;;;;;0.22;81.57;101007.09;5032247;28;20036;-80
2023/04/06 04:14:16;;;;;;;7.82;1.50;;;;;;;0.16;82.19;101009.91;5034711;28;20037;-80
2023/04/06 04:16:41;;;;;;;2.67;1.33;;;;;;;0.11;82.52;101008.44;5030589;28;20550;-79
2023/04/06 04:19:07;;;;;;;8.90;1.40;;;;;;;0.08;83.03;101011.97;5030232;28;20083;-79
2023/04/06 04:21:32;;;;;;;4.47;1.50;;;;;;;0.03;83.03;101008.75;5032433;28;20370;-79
2023/04/06 04:23:58;;;;;;;5.47;1.98;;;;;;;0.02;83.06;101012.22;5033248;28;20044;-79
2023/04/06 04:26:23;;;;;;;5.35;1.70;;;;;;;0.00;83.38;101008.91;5036082;28;20118;-79
2023/04/06 04:28:49;;;;;;;4.40;1.45;;;;;;;-0.03;83.46;101017.56;5033208;28;20493;-79
2023/04/06 04:31:15;;;;;;;2.83;1.35;;;;;;;-0.03;83.87;101014.16;5034358;28;20431;-78
2023/04/06 04:33:40;;;;;;;11.10;1.83;;;;;;;-0.02;84.32;101019.22;5034793;28;20056;-79
2023/04/06 04:36:06;;;;;;;6.97;1.80;;;;;;;-0.03;84.30;101020.13;5030795;28;20026;-79
2023/04/06 04:38:31;;;;;;;4.47;1.83;;;;;;;-0.08;84.22;101019.47;5032572;28;20033;-79
2023/04/06 04:40:56;;;;;;;4.47;1.63;;;;;;;-0.06;84.61;101021.97;5040107;28;20498;-79
2023/04/06 04:43:22;;;;;;;12.00;2.50;;;;;;;-0.08;85.09;101022.03;5043172;28;20126;-79
2023/04/06 04:45:47;;;;;;;11.43;2.92;;;;;;;-0.07;84.50;101020.31;5036156;28;20036;-79
2023/04/06 04:48:13;;;;;;;13.35;1.85;;;;;;;-0.07;84.81;101030.56;5030839;28;20144;-78
2023/04/06 04:50:38;;;;;;;11.20;3.08;;;;;;;-0.04;85.28;101025.31;5034733;28;20471;-79
2023/04/06 04:53:06;;;;;;;7.07;2.03;;;;;;;-0.03;85.25;101032.94;5031994;28;20041;-78
2023/04/06 04:55:32;;;;;;;8.02;2.30;;;;;;;-0.03;85.22;101029.53;5033982;28;20033;-78
2023/04/06 04:57:58;;;;;;;7.38;1.70;;;;;;;-0.01;85.77;101036.25;5039207;28;20076;-78
2023/04/06 05:00:23;;;;;;;9.77;2.28;;;;;;;-0.01;85.78;101032.88;5030329;28;20112;-78
2023/04/06 05:02:49;;;;;;;10.93;2.70;;;;;;;0.06;86.50;101039.38;5031760;28;20045;-78
2023/04/06 05:05:14;;;;;;;5.63;2.55;;;;;;;0.07;85.80;101038.47;5034665;28;20045;-79
2023/04/06 05:07:40;;;;;;;6.20;2.30;;;;;;;0.09;85.69;101031.56;5034149;28;20614;-78
2023/04/06 05:10:06;;;;;;;11.43;2.65;;;;;;;0.14;85.68;101033.94;5034652;28;20030;-78
2023/04/06 05:12:31;;;;;;;10.50;3.13;;;;;;;0.18;86.00;101041.44;5037585;28;20065;-80
2023/04/06 05:14:56;;;;;;;14.10;2.17;;;;;;;0.27;85.68;101046.16;5034298;28;20033;-80
2023/04/06 05:17:22;;;;;;;6.38;2.53;;;;;;;0.36;85.93;101041.56;5036950;28;20159;-79
2023/04/06 05:19:47;;;;;;;4.72;1.90;;;;;;;0.42;85.25;101041.28;5038274;28;20026;-77
2023/04/06 05:22:15;;;;;;;9.13;1.80;;;;;;;0.45;84.90;101036.88;5038611;28;20037;-76
2023/04/06 05:24:41;;;;;;;10.07;2.60;;;;;;;0.50;84.18;101044.34;5032975;28;20041;-76
2023/04/06 05:27:06;;;;;;;10.93;2.95;;;;;;;0.53;84.70;101041.63;5037179;28;20102;-75
2023/04/06 05:29:32;;;;;;;19.75;6.43;;;;;;;0.68;83.26;101050.41;5031219;28;20029;-77
2023/04/06 05:31:57;;;;;;;17.90;8.65;;;;;;;0.81;82.28;101043.84;5033252;28;20044;-74
2023/04/06 05:34:23;;;;;;;15.40;7.25;;;;;;;0.97;80.92;101045.63;5035561;28;20556;-74
2023/04/06 05:36:48;;;;;;;21.30;8.02;;;;;;;1.12;80.11;101040.69;5030770;28;20060;-76
2023/04/06 05:39:14;;;;;;;18.15;7.57;;;;;;;1.28;79.77;101036.53;5028774;28;20483;-76
2023/04/06 05:41:39;;;;;;;15.60;6.75;;;;;;;1.43;79.00;101040.09;5034919;28;20467;-76
2023/04/06 05:44:05;;;;;;;13.73;5.00;;;;;;;1.61;76.31;101040.06;5033787;28;20450;-76
2023/04/06 05:46:30;;;;;;;13.40;5.40;;;;;;;1.82;75.05;101042.50;5035414;28;20434;-76
2023/04/06 05:48:56;;;;;;;13.65;4.55;;;;;;;1.98;73.91;101030.56;5034495;28;20037;-76
2023/04/06 05:51:21;;;;;;;10.70;3.78;;;;;;;2.13;72.88;101042.66;5031505;28;20045;-76
2023/04/06 05:53:47;;;;;;;9.95;3.83;;;;;;;2.31;71.09;101046.88;5029675;28;20029;-77
2023/04/06 05:56:12;;;;;;;13.90;3.20;;;;;;;2.49;69.89;101045.09;5040850;28;20032;-76
2023/04/06 05:58:37;;;;;;;11.50;3.22;;;;;;;2.62;71.67;101047.88;5033690;28;20029;-76
2023/04/06 06:01:04;;;;;;;6.97;2.42;;;;;;;2.65;72.09;101050.28;5036447;28;20036;-76
2023/04/06 06:03:30;;;;;;;7.10;2.63;;;;;;;2.72;71.19;101053.38;5034970;28;20384;-76
2023/04/06 06:06:03;;;;;;;9.88;2.30;;;;;;;2.84;69.64;101050.13;5034661;28;20109;-75
2023/04/06 06:08:30;;;;;;;11.88;2.42;;;;;;;2.95;68.48;101053.81;5028616;28;20045;-76
2023/04/06 06:10:56;;;;;;;5.60;1.70;;;;;;;3.08;68.31;101045.44;5028534;28;20029;-77
2023/04/06 06:13:23;;;;;;;6.80;2.03;;;;;;;3.22;67.06;101043.78;5035179;28;20106;-75
2023/04/06 06:15:49;;;;;;;17.48;2.30;;;;;;;3.36;66.76;101048.16;5031362;28;20490;-76
2023/04/06 06:18:14;;;;;;;11.55;2.60;;;;;;;3.49;65.86;101038.84;5029769;28;20032;-76
2023/04/06 06:20:40;;;;;;;8.23;2.58;;;;;;;3.71;63.90;101035.06;5035679;28;20135;-76
2023/04/06 06:23:05;;;;;;;9.95;3.75;;;;;;;3.92;63.18;101041.56;5033030;28;20390;-76
2023/04/06 06:25:30;;;;;;;11.55;2.70;;;;;;;4.16;62.39;101042.72;5030885;28;20150;-77
2023/04/06 06:27:57;;;;;;;7.93;2.50;;;;;;;4.23;60.95;101043.22;5040305;28;20542;-77
2023/04/06 06:30:22;;;;;;;7.15;1.80;;;;;;;4.36;60.50;101038.13;5031656;28;20535;-77
2023/04/06 06:32:48;;;;;;;9.93;1.83;;;;;;;4.49;59.78;101044.22;5034790;28;20033;-78
2023/04/06 06:35:14;;;;;;;6.97;2.08;;;;;;;4.63;60.18;101039.06;5046460;28;20063;-79
2023/04/06 06:37:39;;;;;;;9.00;2.80;;;;;;;4.68;58.23;101034.47;5058544;28;20025;-79
2023/04/06 06:40:05;;;;;;;6.30;2.08;;;;;;;4.82;58.56;101023.28;5036981;28;20482;-78
2023/04/06 06:42:31;;;;;;;7.32;1.98;;;;;;;5.22;58.50;101030.19;5058083;28;20029;-78
2023/04/06 06:44:56;;;;;;;4.72;1.90;;;;;;;5.57;57.30;101027.97;5041605;28;20046;-78
2023/04/06 06:47:22;;;;;;;4.97;2.05;;;;;;;5.57;55.45;101027.16;5046634;28;20041;-73
2023/04/06 06:49:47;;;;;;;5.63;2.28;;;;;;;5.77;55.27;101029.25;5033877;28;20041;-77
2023/04/06 06:52:12;;;;;;;2.75;1.50;;;;;;;5.94;54.81;101026.44;5028648;28;20033;-77
2023/04/06 06:54:38;;;;;;;6.78;2.35;;;;;;;6.19;54.89;101025.63;5023234;28;20048;-77
2023/04/06 06:57:03;;;;;;;5.00;1.98;;;;;;;6.42;54.14;101031.84;5036348;28;20033;-77
2023/04/06 06:59:29;;;;;;;9.30;1.95;;;;;;;6.61;53.97;101026.25;5025081;28;20026;-77
2023/04/06 07:01:55;;;;;;;4.85;1.90;;;;;;;6.94;53.33;101026.47;5020967;28;20046;-77
2023/04/06 07:04:20;;;;;;;6.88;1.67;;;;;;;7.18;52.05;101023.91;5033080;28;20041;-78
2023/04/06 07:06:46;;;;;;;4.72;2.10;;;;;;;7.59;51.17;101015.72;5032039;28;20367;-77
2023/04/06 07:09:11;;;;;;;4.25;1.65;;;;;;;7.82;50.73;101021.00;5031922;28;20335;-77
2023/04/06 07:11:37;;;;;;;4.63;1.67;;;;;;;8.09;50.78;101018.13;5023428;28;20022;-77
2023/04/06 07:14:02;;;;;;;9.60;2.60;;;;;;;8.37;50.83;101022.09;5036790;28;20032;-78
2023/04/06 07:16:27;;;;;;;3.63;1.67;;;;;;;8.56;50.58;101023.16;5028474;28;20043;-78
2023/04/06 07:18:53;;;;;;;4.05;1.30;;;;;;;8.74;49.64;101015.72;5019737;28;20108;-78
2023/04/06 07:21:18;;;;;;;5.57;1.55;;;;;;;8.92;48.83;101019.47;5024323;28;20112;-77
2023/04/06 07:23:44;;;;;;;4.90;1.70;;;;;;;8.83;47.95;101015.00;5025034;28;20026;-77
2023/04/06 07:26:09;;;;;;;3.90;1.98;;;;;;;8.83;48.04;101015.00;5027141;28;20041;-77
2023/04/06 07:28:35;;;;;;;3.92;2.00;;;;;;;8.94;48.40;101017.59;5028722;28;20030;-77
2023/04/06 07:31:00;;;;;;;3.78;1.83;;;;;;;9.06;47.33;101009.75;5028343;28;20034;-76
2023/04/06 07:33:29;;;;;;;3.33;1.33;;;;;;;9.28;47.44;101014.91;5027781;28;20037;-75
2023/04/06 07:35:55;;;;;;;6.38;1.60;;;;;;;9.87;46.32;101017.03;5024813;28;20530;-75
2023/04/06 07:38:21;;;;;;;4.28;1.98;;;;;;;10.08;45.52;101009.19;5028895;28;20498;-68
2023/04/06 07:40:46;;;;;;;4.20;2.00;;;;;;;11.27;43.23;101018.03;5028809;28;20033;-75
2023/04/06 07:43:11;;;;;;;4.43;1.85;;;;;;;12.42;40.65;101005.81;5028231;28;20502;-75
2023/04/06 07:45:37;;;;;;;4.43;1.92;;;;;;;12.73;39.34;101007.19;5026931;28;20026;-74
2023/04/06 07:48:02;;;;;;;4.85;2.03;;;;;;;12.98;39.31;101005.66;5026635;28;20037;-75
2023/04/06 07:50:28;;;;;;;5.00;1.70;;;;;;;13.74;38.46;101007.88;5025297;28;20025;-75
2023/04/06 07:52:53;;;;;;;3.65;1.83;;;;;;;13.64;38.30;100999.31;5022891;28;20034;-73
2023/04/06 07:55:19;;;;;;;4.82;1.85;;;;;;;14.04;37.88;100999.59;5027970;28;20041;-74
2023/04/06 07:57:44;;;;;;;3.38;1.80;;;;;;;14.25;37.37;101002.66;5027044;28;20040;-75
2023/04/06 08:00:11;;;;;;;6.07;1.98;;;;;;;14.08;37.24;101003.56;5028489;28;20485;-73
2023/04/06 08:02:36;;;;;;;4.03;1.95;;;;;;;13.25;38.50;101002.19;5037178;28;20045;-76
2023/04/06 08:05:02;;;;;;;2.92;2.00;;;;;;;13.16;39.03;101003.13;5032285;28;20045;-76
2023/04/06 08:07:27;;;;;;;3.97;1.67;;;;;;;12.60;40.74;101002.31;5023915;28;20045;-74
2023/04/06 08:09:53;;;;;;;3.03;1.75;;;;;;;11.70;40.68;100994.13;5027742;28;20037;-74
2023/04/06 08:12:18;;;;;;;3.33;1.35;;;;;;;10.84;41.46;100997.50;5028986;28;20110;-74
2023/04/06 08:14:44;;;;;;;3.17;1.52;;;;;;;10.42;42.52;100995.00;5026939;28;20083;-75
2023/04/06 08:17:09;;;;;;;4.07;1.50;;;;;;;11.10;42.29;100992.59;5026997;28;20026;-75
2023/04/06 08:19:35;;;;;;;5.32;1.63;;;;;;;11.54;42.74;100978.19;5031421;28;20037;-75
2023/04/06 08:22:00;;;;;;;2.83;1.23;;;;;;;11.69;42.02;100986.44;5027045;28;20092;-72
2023/04/06 08:24:26;;;;;;;4.78;1.60;;;;;;;11.73;41.18;100980.81;5025024;28;20121;-76
2023/04/06 08:26:51;;;;;;;3.92;1.55;;;;;;;12.24;40.56;100982.22;5024377;28;20037;-74
2023/04/06 08:29:17;;;;;;;3.40;1.50;;;;;;;12.72;40.37;100979.41;5031127;28;20038;-73
2023/04/06 08:31:43;;;;;;;3.33;1.88;;;;;;;12.70;39.72;100978.72;5038893;28;20083;-73
2023/04/06 08:34:08;;;;;;;4.90;2.08;;;;;;;12.63;40.67;100975.88;5025996;28;20032;-73
2023/04/06 08:36:34;;;;;;;3.45;2.17;;;;;;;12.01;40.78;100978.31;5019767;28;20459;-73
2023/04/06 08:39:00;;;;;;;4.78;1.95;;;;;;;11.37;41.92;100977.09;5025614;28;20064;-73
2023/04/06 08:41:26;;;;;;;3.63;1.73;;;;;;;11.10;42.11;100987.38;5022221;28;20475;-73
2023/04/06 08:43:59;;;;;;;3.10;1.95;;;;;;;10.59;41.32;100977.94;5023298;28;20040;-73
2023/04/06 08:46:31;;;;;;;3.03;1.63;;;;;;;11.20;41.02;100967.38;5021343;28;20029;-73
2023/04/06 08:49:07;;;;;;;4.45;2.10;;;;;;;11.50;38.20;100974.22;5026647;28;20075;-73
2023/04/06 08:51:32;;;;;;;;;;;;;;;11.96;36.14;100966.50;5014941;28;20032;-73
2023/04/06 08:53:59;;;;;;;3.23;1.83;;;;;;;11.98;39.84;100966.34;5022613;28;19921;-73
2023/04/06 08:56:27;;;;;;;3.88;1.85;;;;;;;11.94;38.52;100967.59;5016173;28;20029;-73
2023/04/06 08:58:54;;;;;;;6.78;1.67;;;;;;;12.38;38.39;100967.84;5014798;28;20045;-73
2023/04/06 09:01:43;;;;;;;4.10;1.90;;;;;;;12.85;35.69;100952.88;5017403;28;20022;-72
2023/04/06 09:04:10;;;;;;;5.32;1.65;;;;;;;11.72;39.58;100955.66;5014002;28;20049;-73
2023/04/06 09:06:36;;;;;;;16.55;2.47;;;;;;;11.13;40.72;100946.22;5026019;28;20040;-73
2023/04/06 09:09:02;;;;;;;6.10;2.30;;;;;;;11.18;41.11;100944.03;5018355;28;20458;-74
2023/04/06 09:11:28;;;;;;;4.28;1.95;;;;;;;11.24;41.50;100946.09;5020044;28;20040;-73
2023/04/06 09:13:56;;;;;;;2.92;1.80;;;;;;;11.30;41.64;100947.34;5018053;28;20025;-73
2023/04/06 09:16:22;;;;;;;4.00;1.77;;;;;;;10.84;41.44;100940.16;5019725;28;20034;-72
2023/04/06 09:18:49;;;;;;;3.42;1.98;;;;;;;10.12;41.06;100938.50;5026935;28;20026;-73
2023/04/06 09:21:18;;;;;;;6.28;3.10;;;;;;;9.72;41.12;100950.63;5024872;28;20394;-73
2023/04/06 09:23:43;;;;;;;4.28;1.85;;;;;;;9.30;41.46;100948.81;5023254;28;20495;-73
2023/04/06 09:26:14;;;;;;;4.50;1.70;;;;;;;9.37;41.18;100946.56;5017734;28;20052;-72
2023/04/06 09:28:42;;;;;;;7.47;2.10;;;;;;;9.57;42.10;100948.34;5029262;28;20483;-73
2023/04/06 09:31:09;;;;;;;3.67;1.77;;;;;;;9.73;42.55;100939.25;5031853;28;20696;-72
2023/04/06 09:33:38;;;;;;;4.15;1.75;;;;;;;9.73;43.34;100936.66;5033847;28;20042;-73
2023/04/06 09:36:04;;;;;;;4.00;1.70;;;;;;;9.72;43.29;100935.00;5032117;28;20029;-73
2023/04/06 09:38:30;;;;;;;5.20;2.15;;;;;;;9.59;43.20;100937.81;5029216;28;20049;-72
2023/04/06 09:40:55;;;;;;;5.38;2.03;;;;;;;9.34;43.02;100935.56;5026603;28;20052;-72
2023/04/06 09:43:27;;;;;;;6.28;2.65;;;;;;;9.27;41.61;100930.03;5024608;28;20030;-68
2023/04/06 09:45:54;;;;;;;5.20;1.80;;;;;;;9.11;42.41;100921.84;5019678;28;20033;-68
2023/04/06 09:48:21;;;;;;;6.15;2.60;;;;;;;9.14;42.43;100918.97;5024195;28;20037;-69
2023/04/06 09:50:49;;;;;;;7.22;2.20;;;;;;;9.34;42.55;100920.81;5022810;28;20116;-69
2023/04/06 09:53:20;;;;;;;5.32;1.77;;;;;;;9.48;43.09;100917.03;5024418;28;20125;-69
2023/04/06 09:55:51;;;;;;;6.07;2.20;;;;;;;9.50;43.06;100920.34;5023930;28;20104;-69
2023/04/06 09:58:25;;;;;;;3.05;2.17;;;;;;;9.41;43.42;100911.56;5023639;28;20034;-69
2023/04/06 10:01:09;;;;;;;10.80;2.10;;;;;;;9.44;42.58;100903.50;5019181;28;20116;-70
2023/04/06 10:03:45;;;;;;;7.60;2.10;;;;;;;9.61;43.62;100905.50;5031310;28;20136;-73
2023/04/06 10:06:13;;;;;;;3.45;2.05;;;;;;;9.82;43.26;100904.69;5031541;28;20032;-73
2023/04/06 10:08:41;;;;;;;3.67;1.55;;;;;;;9.86;42.83;100893.06;5026753;28;20036;-72
2023/04/06 10:11:07;;;;;;;6.32;2.40;;;;;;;9.77;42.89;100893.81;5035222;28;20124;-73
2023/04/06 10:13:33;;;;;;;3.42;1.88;;;;;;;9.85;42.83;100894.00;5026606;28;20040;-72
2023/04/06 10:16:01;;;;;;;5.68;2.20;;;;;;;9.87;42.43;100876.50;5022151;28;20033;-72
2023/04/06 10:18:27;;;;;;;6.75;2.50;;;;;;;9.61;42.70;100874.28;5018774;28;20060;-73
2023/04/06 10:21:04;;;;;;;3.92;1.85;;;;;;;9.67;43.55;100880.75;5029256;28;20159;-71
2023/04/06 10:23:43;;;;;;;5.95;2.75;;;;;;;9.84;42.80;100869.75;5015307;28;20406;-70
2023/04/06 10:26:14;;;;;;;6.35;2.70;;;;;;;9.92;43.62;100866.50;5026919;28;20037;-71
2023/04/06 10:28:41;;;;;;;4.57;2.35;;;;;;;9.92;43.73;100867.31;5035585;28;20041;-71
2023/04/06 10:31:07;;;;;;;3.45;1.95;;;;;;;9.87;43.81;100859.09;5027914;28;20084;-71
2023/04/06 10:33:32;;;;;;;4.32;2.40;;;;;;;10.01;44.42;100867.47;5018209;28;20487;-72
2023/04/06 10:36:11;;;;;;;3.33;2.25;;;;;;;9.97;44.33;100865.13;5022402;28;20044;-71
2023/04/06 10:38:41;;;;;;;4.53;2.42;;;;;;;9.88;44.65;100859.91;5035210;28;20113;-72
2023/04/06 10:41:08;;;;;;;4.40;2.80;;;;;;;9.92;45.09;100853.50;5032563;28;20051;-73
2023/04/06 10:43:36;;;;;;;4.93;2.00;;;;;;;10.15;44.89;100852.34;5025762;28;20037;-71
2023/04/06 10:46:03;;;;;;;5.25;2.72;;;;;;;10.18;45.17;100862.50;5039320;28;20036;-71
2023/04/06 10:48:37;;;;;;;4.95;2.30;;;;;;;10.17;44.48;100857.41;5033783;28;20333;-72
2023/04/06 10:51:08;;;;;;;5.55;2.80;;;;;;;10.16;44.85;100856.59;5033406;28;20090;-71
2023/04/06 10:53:34;;;;;;;15.73;2.60;;;;;;;10.31;44.67;100849.25;5022201;28;20112;-72
2023/04/06 10:55:59;;;;;;;4.35;3.20;;;;;;;10.37;44.61;100847.91;5023650;28;20383;-72
2023/04/06 10:58:26;;;;;;;4.45;2.28;;;;;;;10.34;44.74;100841.19;5024220;28;20025;-73
2023/04/06 11:00:53;;;;;;;4.57;2.47;;;;;;;10.33;44.96;100838.72;5026605;28;20029;-72
2023/04/06 11:03:19;;;;;;;4.32;2.55;;;;;;;10.35;44.83;100834.19;5019478;28;20087;-72
2023/04/06 11:05:45;;;;;;;5.13;2.60;;;;;;;10.47;45.16;100830.50;5022303;28;20053;-72
2023/04/06 11:08:10;;;;;;;7.20;2.13;;;;;;;10.54;44.92;100826.41;5027379;28;20454;-70
2023/04/06 11:10:36;;;;;;;7.50;3.42;;;;;;;10.61;45.24;100820.50;5029330;28;20061;-71
2023/04/06 11:13:02;;;;;;;5.68;3.20;;;;;;;10.62;45.16;100821.34;5028634;28;20029;-71
2023/04/06 11:15:34;;;;;;;5.60;3.22;;;;;;;10.58;45.07;100820.78;5023293;28;20072;-71
2023/04/06 11:18:04;;;;;;;5.75;3.47;;;;;;;10.57;45.04;100821.75;5030132;28;20064;-71
2023/04/06 11:20:29;;;;;;;5.53;3.38;;;;;;;10.61;45.40;100819.69;5023493;28;20160;-71
2023/04/06 11:22:54;;;;;;;9.00;3.30;;;;;;;10.66;44.50;100809.69;5023937;28;20499;-70
2023/04/06 11:25:20;;;;;;;6.35;3.33;;;;;;;10.72;44.25;100810.91;5026730;28;20045;-71
2023/04/06 11:27:47;;;;;;;3.67;2.55;;;;;;;10.67;44.73;100802.69;5027770;28;20108;-71